Kissimmee Gateway Airport Orlando US
ICAO: KISM
IATA: ISM
Category: Medium
Scheduled Services: No

Elevation: 82 ft
TransAlt. 18000 ft.

Airport Communications:
ORLANDO APP/DEP:119.4
AWOS 3:128.775
ORLANDO CLNC DEL:119.95
CTAF:124.45
GND:121.7
TWR:124.45
UNICOM:122.95

KISM Zoom In..

If you have problems with the map follow the link
https://www.worldairports.se/pages/airport.php?
ICAO=KISM

Runways:

(A) RW 06 length 5001 ft width 150 ft
---- / hdg 63

(B) RW 15 length 6001 ft width 100 ft
ILS 109.75 / hdg 153

(C) RW 24 length 5001 ft width 150 ft
---- / hdg 243

(D) RW 33 length 6001 ft width 100 ft
---- / hdg 333

Location; KISM
Day. 23 / Time. 16.56 Zulu
* Altimeter: 30.11
* Temperature: 28° c. 82.4°f.
* Wind from: 210° Speed 04 kn.
Dewpoint: 19° c.
Visibility: 10 Statute Miles.
Clouds: Scattered 3500 ft.

KISM 231656Z 21004KT 10SM SCT035 28/19 A3011 RMK AO2 SLP196 T02780189


Wind From 210°
Speed 04 kn.

 
 
jpsmedia.com for Web Design worldairports.se 2018   terms of use